Time;durP1;ratioP1;P1;durP2;ratioP2;P2;SDS_P1;SDS_P2;PMS_P1;PMS_P2;Temp;Humidity;BMP_temperature;BMP_pressure;BME280_temperature;BME280_humidity;BME280_pressure;Samples;Min_cycle;Max_cycle;Signal;HPM_P1;HPM_P2
2022/03/19 00:01:50;;;;;;;61.10;50.17;;;;;;;5.40;100.00;102472.94;5022940;28;20191;-56
2022/03/19 00:04:16;;;;;;;62.07;49.63;;;;;;;5.37;100.00;102465.06;5023451;28;20212;-58
2022/03/19 00:06:45;;;;;;;66.70;50.90;;;;;;;5.33;100.00;102473.47;5020229;28;20200;-58
2022/03/19 00:09:10;;;;;;;63.70;51.50;;;;;;;5.31;100.00;102475.94;5020229;28;20216;-57
2022/03/19 00:11:36;;;;;;;63.13;50.80;;;;;;;5.31;100.00;102475.94;5023246;28;20193;-57
2022/03/19 00:14:02;;;;;;;59.23;49.83;;;;;;;5.29;100.00;102477.56;5018513;28;20214;-56
2022/03/19 00:16:28;;;;;;;63.90;49.83;;;;;;;5.28;100.00;102478.38;5023272;28;20335;-56
2022/03/19 00:18:53;;;;;;;60.73;49.53;;;;;;;5.20;100.00;102479.69;5021001;28;20239;-56
2022/03/19 00:21:19;;;;;;;63.07;50.73;;;;;;;5.18;100.00;102473.59;5017810;28;20196;-57
2022/03/19 00:23:46;;;;;;;63.00;50.70;;;;;;;5.18;100.00;102465.88;5024886;28;20203;-56
2022/03/19 00:26:12;;;;;;;65.17;48.37;;;;;;;5.14;100.00;102471.69;5028796;28;20198;-57
2022/03/19 00:28:38;;;;;;;59.50;49.67;;;;;;;5.15;100.00;102468.28;5019795;28;20215;-58
2022/03/19 00:31:04;;;;;;;66.73;52.27;;;;;;;5.10;100.00;102468.06;5018849;28;20222;-59
2022/03/19 00:33:29;;;;;;;62.67;49.57;;;;;;;5.03;100.00;102460.91;5019107;28;20302;-58
2022/03/19 00:35:55;;;;;;;63.27;50.97;;;;;;;5.06;100.00;102465.28;5018856;28;20188;-57
2022/03/19 00:38:20;;;;;;;65.30;51.53;;;;;;;5.05;100.00;102464.44;5012807;28;20216;-58
2022/03/19 00:40:46;;;;;;;67.23;51.83;;;;;;;5.02;100.00;102460.00;5019813;28;20200;-56
2022/03/19 00:43:11;;;;;;;64.93;50.60;;;;;;;5.02;100.00;102456.56;5026002;28;20583;-57
2022/03/19 00:45:37;;;;;;;63.97;50.90;;;;;;;5.01;100.00;102463.38;5027612;28;20202;-56
2022/03/19 00:48:02;;;;;;;60.03;50.47;;;;;;;5.00;100.00;102455.63;5018947;28;20361;-57
2022/03/19 00:50:28;;;;;;;67.77;50.80;;;;;;;4.97;100.00;102468.28;5017676;28;20697;-58
2022/03/19 00:52:53;;;;;;;66.13;52.50;;;;;;;4.93;100.00;102453.53;5016980;28;20301;-59
2022/03/19 00:55:18;;;;;;;65.73;50.20;;;;;;;4.93;100.00;102454.44;5019752;28;20919;-59
2022/03/19 00:57:46;;;;;;;63.07;51.90;;;;;;;4.91;100.00;102462.88;5026560;28;20192;-58
2022/03/19 01:00:15;;;;;;;65.73;51.67;;;;;;;4.88;100.00;102450.75;5023877;28;20199;-58
2022/03/19 01:02:42;;;;;;;66.93;51.23;;;;;;;4.84;100.00;102460.00;5021145;28;20211;-57
2022/03/19 01:05:08;;;;;;;62.43;50.80;;;;;;;4.84;100.00;102457.41;5020198;28;20187;-57
2022/03/19 01:07:47;;;;;;;62.83;50.93;;;;;;;4.81;100.00;102454.69;5019662;28;20569;-56
2022/03/19 01:10:14;;;;;;;65.73;51.87;;;;;;;4.79;100.00;102453.72;5018332;28;20305;-55
2022/03/19 01:12:40;;;;;;;69.80;53.00;;;;;;;4.76;100.00;102457.84;5019884;28;20188;-57
2022/03/19 01:15:05;;;;;;;66.30;50.40;;;;;;;4.75;100.00;102453.50;5014826;28;20221;-58
2022/03/19 01:17:34;;;;;;;69.13;52.57;;;;;;;4.73;100.00;102463.72;5020021;28;20196;-58
2022/03/19 01:20:01;;;;;;;66.17;50.40;;;;;;;4.74;100.00;102450.09;5018200;28;21040;-58
2022/03/19 01:22:28;;;;;;;69.70;53.07;;;;;;;4.75;100.00;102454.41;5013822;28;20211;-57
2022/03/19 01:24:54;;;;;;;64.07;50.67;;;;;;;4.72;100.00;102451.69;5017729;28;20191;-59
2022/03/19 01:27:20;;;;;;;65.97;51.67;;;;;;;4.68;100.00;102445.53;5022843;28;20257;-58
2022/03/19 01:29:45;;;;;;;64.63;51.20;;;;;;;4.67;100.00;102453.13;5017324;28;20735;-60
2022/03/19 01:32:11;;;;;;;64.67;51.40;;;;;;;4.61;100.00;102446.00;5018861;28;20691;-59
2022/03/19 01:34:36;;;;;;;66.00;52.87;;;;;;;4.64;100.00;102450.41;5020077;28;20202;-56
2022/03/19 01:37:02;;;;;;;65.67;50.47;;;;;;;4.57;100.00;102446.66;5016202;28;20187;-58
2022/03/19 01:39:28;;;;;;;65.07;49.27;;;;;;;4.57;100.00;102447.53;5018288;28;20614;-58
2022/03/19 01:41:53;;;;;;;67.10;49.47;;;;;;;4.56;100.00;102448.34;5021561;28;20214;-58
2022/03/19 01:44:20;;;;;;;61.13;48.63;;;;;;;4.52;100.00;102443.84;5016867;28;20227;-59
2022/03/19 01:46:55;;;;;;;64.60;51.40;;;;;;;4.50;100.00;102445.47;5017261;28;20647;-56
2022/03/19 01:49:21;;;;;;;65.20;49.40;;;;;;;4.47;100.00;102441.88;5017672;28;20301;-57
2022/03/19 01:51:46;;;;;;;64.70;49.73;;;;;;;4.43;100.00;102439.13;5020886;28;20268;-57
2022/03/19 01:54:12;;;;;;;61.80;48.67;;;;;;;4.42;100.00;102446.78;5018746;28;20915;-59
2022/03/19 01:56:38;;;;;;;60.57;48.63;;;;;;;4.39;100.00;102444.03;5018671;28;20192;-58
2022/03/19 01:59:04;;;;;;;65.87;46.90;;;;;;;4.33;100.00;102446.28;5019564;28;20310;-57
2022/03/19 02:01:29;;;;;;;68.63;50.17;;;;;;;4.31;100.00;102440.22;5018353;28;20813;-58
2022/03/19 02:03:55;;;;;;;62.00;48.60;;;;;;;4.35;100.00;102444.69;5022674;28;20204;-58
2022/03/19 02:06:25;;;;;;;63.47;48.73;;;;;;;4.31;100.00;102441.09;5025049;28;20187;-57
2022/03/19 02:08:51;;;;;;;64.67;48.23;;;;;;;4.30;100.00;102452.13;5021856;28;20222;-57
2022/03/19 02:11:16;;;;;;;58.57;46.93;;;;;;;4.28;100.00;102453.72;5021593;28;20570;-58
2022/03/19 02:13:42;;;;;;;65.57;48.90;;;;;;;4.30;100.00;102443.59;5019361;28;20192;-57
2022/03/19 02:16:08;;;;;;;61.90;48.03;;;;;;;4.29;100.00;102441.81;5021826;28;20211;-58
2022/03/19 02:18:33;;;;;;;60.10;46.80;;;;;;;4.23;100.00;102442.38;5017206;28;20233;-58
2022/03/19 02:20:59;;;;;;;62.77;48.47;;;;;;;4.20;100.00;102447.34;5022279;28;20195;-57
2022/03/19 02:26:09;;;;;;;60.90;46.67;;;;;;;4.22;100.00;102436.34;5017703;28;20751;-56
2022/03/19 02:28:35;;;;;;;59.50;47.03;;;;;;;4.17;100.00;102432.66;5016328;28;20266;-58
2022/03/19 02:31:01;;;;;;;60.27;46.80;;;;;;;4.21;100.00;102433.72;5022644;28;20216;-59
2022/03/19 02:33:26;;;;;;;58.87;46.20;;;;;;;4.15;100.00;102444.53;5021132;28;20187;-58
2022/03/19 02:35:51;;;;;;;59.87;47.30;;;;;;;4.16;100.00;102437.72;5024299;28;20212;-56
2022/03/19 02:38:17;;;;;;;57.63;46.10;;;;;;;4.17;100.00;102435.22;5016524;28;20195;-57
2022/03/19 02:40:42;;;;;;;59.33;47.00;;;;;;;4.21;100.00;102432.03;5018851;28;20198;-57
2022/03/19 02:43:08;;;;;;;62.03;48.27;;;;;;;4.16;100.00;102427.47;5021590;28;20254;-59
2022/03/19 02:45:33;;;;;;;64.70;47.20;;;;;;;4.17;100.00;102435.22;5021767;28;20707;-56
2022/03/19 02:47:58;;;;;;;63.63;46.23;;;;;;;4.12;100.00;102429.00;5018826;28;20215;-57
2022/03/19 02:50:29;;;;;;;58.57;46.47;;;;;;;4.14;100.00;102436.75;5019950;28;20184;-57
2022/03/19 02:52:57;;;;;;;62.73;46.30;;;;;;;4.11;100.00;102434.94;5020855;28;20201;-56
2022/03/19 02:55:23;;;;;;;59.80;45.73;;;;;;;4.08;100.00;102422.81;5022670;28;20320;-55
2022/03/19 02:57:48;;;;;;;61.63;45.03;;;;;;;4.08;100.00;102427.06;5022088;28;20222;-56
2022/03/19 03:00:14;;;;;;;60.10;45.17;;;;;;;4.05;100.00;102421.78;5022288;28;20277;-58
2022/03/19 03:02:40;;;;;;;62.73;46.50;;;;;;;4.02;100.00;102421.63;5020137;28;20303;-59
2022/03/19 03:05:05;;;;;;;63.23;47.70;;;;;;;4.02;100.00;102431.88;5021546;28;20581;-58
2022/03/19 03:07:31;;;;;;;60.37;44.33;;;;;;;3.96;100.00;102427.31;5023914;28;20274;-58
2022/03/19 03:09:56;;;;;;;58.20;44.63;;;;;;;3.93;100.00;102427.16;5019214;28;20184;-56
2022/03/19 03:12:22;;;;;;;61.70;46.90;;;;;;;3.92;100.00;102425.41;5023601;28;20274;-60
2022/03/19 03:14:48;;;;;;;61.17;45.37;;;;;;;3.87;100.00;102427.69;5018267;28;20208;-57
2022/03/19 03:17:13;;;;;;;58.97;45.43;;;;;;;3.85;100.00;102424.19;5022638;28;20196;-59
2022/03/19 03:19:38;;;;;;;60.27;46.60;;;;;;;3.89;100.00;102417.53;5019575;28;20207;-57
2022/03/19 03:22:04;;;;;;;60.27;46.43;;;;;;;3.85;100.00;102424.19;5025526;28;20187;-60
2022/03/19 03:24:29;;;;;;;59.03;45.63;;;;;;;3.84;100.00;102419.88;5019401;28;20298;-59
2022/03/19 03:26:55;;;;;;;61.33;45.27;;;;;;;3.79;100.00;102418.72;5021825;28;20748;-56
2022/03/19 03:29:21;;;;;;;59.67;45.80;;;;;;;3.77;100.00;102415.22;5019989;28;20292;-57
2022/03/19 03:31:46;;;;;;;59.27;46.30;;;;;;;3.75;100.00;102416.81;5020858;28;20695;-56
2022/03/19 03:34:11;;;;;;;56.07;44.40;;;;;;;3.72;100.00;102411.50;5024087;28;20560;-57
2022/03/19 03:36:37;;;;;;;60.20;44.73;;;;;;;3.72;100.00;102407.28;5021742;28;20195;-56
2022/03/19 03:39:02;;;;;;;59.03;45.93;;;;;;;3.66;100.00;102412.97;5020523;28;20265;-54
2022/03/19 03:41:30;;;;;;;57.53;44.63;;;;;;;3.65;100.00;102411.19;5020387;28;20196;-57
2022/03/19 03:43:55;;;;;;;61.10;44.77;;;;;;;3.65;100.00;102416.31;5021478;28;20219;-59
2022/03/19 03:46:21;;;;;;;58.80;44.10;;;;;;;3.66;100.00;102406.94;5020251;28;20229;-56
2022/03/19 03:48:46;;;;;;;57.00;43.73;;;;;;;3.64;100.00;102405.97;5016089;28;20215;-56
2022/03/19 03:51:12;;;;;;;58.77;43.20;;;;;;;3.65;100.00;102406.06;5018561;28;20187;-56
2022/03/19 03:53:38;;;;;;;62.00;45.50;;;;;;;3.61;100.00;102404.13;5020042;28;20183;-57
2022/03/19 03:56:05;;;;;;;58.90;45.73;;;;;;;3.63;100.00;102407.66;5021044;28;20252;-58
2022/03/19 03:58:31;;;;;;;59.90;44.40;;;;;;;3.63;100.00;102405.09;5020356;28;20211;-57
2022/03/19 04:00:57;;;;;;;59.17;45.13;;;;;;;3.65;100.00;102400.97;5031963;28;20184;-57
2022/03/19 04:03:23;;;;;;;54.43;43.73;;;;;;;3.63;100.00;102396.56;5035724;28;20211;-58
2022/03/19 04:05:49;;;;;;;61.43;44.93;;;;;;;3.64;100.00;102394.06;5031357;28;20218;-57
2022/03/19 04:08:14;;;;;;;63.03;44.87;;;;;;;3.66;100.00;102404.38;5023878;28;20583;-58
2022/03/19 04:10:40;;;;;;;59.27;43.90;;;;;;;3.64;100.00;102398.28;5026417;28;20203;-55
2022/03/19 04:13:05;;;;;;;62.03;44.47;;;;;;;3.62;100.00;102403.34;5021508;28;20317;-58
2022/03/19 04:15:30;;;;;;;58.57;44.77;;;;;;;3.61;100.00;102395.59;5022152;28;20198;-57
2022/03/19 04:17:56;;;;;;;60.07;44.87;;;;;;;3.60;100.00;102396.38;5015419;28;20291;-55
2022/03/19 04:20:22;;;;;;;60.03;45.80;;;;;;;3.60;100.00;102396.38;5021744;28;21971;-55
2022/03/19 04:22:49;;;;;;;60.20;46.37;;;;;;;3.58;100.00;102397.97;5021755;28;20203;-58
2022/03/19 04:25:23;;;;;;;59.07;44.83;;;;;;;3.60;100.00;102393.81;5025479;28;20267;-56
2022/03/19 04:27:50;;;;;;;57.40;44.97;;;;;;;3.55;100.00;102391.03;5021701;28;20194;-58
2022/03/19 04:30:17;;;;;;;59.33;45.80;;;;;;;3.55;100.00;102392.69;5024251;28;20724;-56
2022/03/19 04:32:45;;;;;;;59.93;46.80;;;;;;;3.55;100.00;102392.69;5023286;28;20180;-58
2022/03/19 04:38:00;;;;;;;59.40;44.67;;;;;;;3.48;100.00;102407.69;5027088;28;20244;-58
2022/03/19 04:40:26;;;;;;;61.13;45.77;;;;;;;3.47;100.00;102389.72;5026793;28;20322;-58
2022/03/19 04:42:51;;;;;;;59.40;44.80;;;;;;;3.45;100.00;102391.31;5028422;28;20219;-58
2022/03/19 04:45:17;;;;;;;55.63;42.83;;;;;;;3.43;100.00;102398.00;5026939;28;20206;-59
2022/03/19 04:47:42;;;;;;;58.50;43.80;;;;;;;3.41;100.00;102395.38;5019753;28;20184;-60
2022/03/19 04:50:08;;;;;;;58.90;44.97;;;;;;;3.41;100.00;102395.38;5023770;28;20187;-59
2022/03/19 04:52:34;;;;;;;62.33;45.77;;;;;;;3.40;100.00;102387.63;5020590;28;20191;-56
2022/03/19 04:55:00;;;;;;;57.17;45.33;;;;;;;3.33;100.00;102397.53;5018625;28;20195;-58
2022/03/19 04:57:30;;;;;;;61.77;45.53;;;;;;;3.37;100.00;102395.16;5021415;28;20187;-56
2022/03/19 04:59:57;;;;;;;56.63;44.03;;;;;;;3.34;100.00;102393.28;5019204;28;20191;-60
2022/03/19 05:02:24;;;;;;;59.10;44.60;;;;;;;3.34;100.00;102389.06;5021397;28;20175;-55
2022/03/19 05:04:54;;;;;;;60.57;46.20;;;;;;;3.40;100.00;102383.38;5016343;28;20187;-57
2022/03/19 05:07:20;;;;;;;59.47;45.33;;;;;;;3.36;100.00;102391.69;5014827;28;20198;-58
2022/03/19 05:12:40;;;;;;;59.37;46.33;;;;;;;3.31;100.00;102388.88;5028339;28;20253;-59
2022/03/19 05:15:07;;;;;;;60.17;45.83;;;;;;;3.34;100.00;102381.38;5028123;28;20657;-59
2022/03/19 05:17:33;;;;;;;60.93;45.67;;;;;;;3.35;100.00;102383.13;5020123;28;20524;-57
2022/03/19 05:19:58;;;;;;;57.40;44.67;;;;;;;3.41;100.00;102379.13;5017058;28;20193;-56
2022/03/19 05:22:24;;;;;;;59.37;46.57;;;;;;;3.39;100.00;102380.75;5021130;28;20688;-59
2022/03/19 05:24:49;;;;;;;61.00;44.77;;;;;;;3.40;100.00;102374.84;5019333;28;20645;-57
2022/03/19 05:27:15;;;;;;;59.73;46.57;;;;;;;3.45;100.00;102368.28;5020486;28;20201;-56
2022/03/19 05:29:40;;;;;;;57.27;44.87;;;;;;;3.44;100.00;102369.06;5018917;28;20294;-60
2022/03/19 05:32:06;;;;;;;60.43;45.50;;;;;;;3.47;100.00;102376.91;5018008;28;20611;-56
2022/03/19 05:34:33;;;;;;;58.33;45.77;;;;;;;3.47;100.00;102379.47;5018942;28;20183;-59
2022/03/19 05:37:00;;;;;;;56.63;45.60;;;;;;;3.48;100.00;102376.13;5023743;28;20184;-58
2022/03/19 05:39:30;;;;;;;63.53;46.53;;;;;;;3.50;100.00;102372.84;5021947;28;20211;-59
2022/03/19 05:41:56;;;;;;;57.93;46.03;;;;;;;3.56;100.00;102374.84;5020039;28;20218;-57
2022/03/19 05:44:22;;;;;;;59.33;46.83;;;;;;;3.58;100.00;102380.94;5022850;28;20212;-59
2022/03/19 05:46:48;;;;;;;59.67;45.80;;;;;;;3.61;100.00;102377.66;5023710;28;20202;-60
2022/03/19 05:49:14;;;;;;;58.07;45.20;;;;;;;3.61;100.00;102370.00;5020756;28;20224;-56
2022/03/19 05:51:39;;;;;;;57.13;45.57;;;;;;;3.60;100.00;102370.78;5018700;28;20200;-57
2022/03/19 05:54:05;;;;;;;57.43;43.67;;;;;;;3.62;100.00;102370.06;5022700;28;20187;-58
2022/03/19 05:56:31;;;;;;;55.73;44.60;;;;;;;3.64;100.00;102378.72;5016227;28;20344;-57
2022/03/19 05:58:56;;;;;;;60.50;45.80;;;;;;;3.70;100.00;102373.03;5025699;28;20234;-55
2022/03/19 06:01:26;;;;;;;56.67;45.10;;;;;;;3.69;100.00;102371.25;5025999;28;20199;-57
2022/03/19 06:03:52;;;;;;;58.67;43.17;;;;;;;3.71;100.00;102359.41;5023315;28;20214;-57
2022/03/19 06:06:17;;;;;;;53.97;43.53;;;;;;;3.78;100.00;102370.88;5021280;28;20663;-56
2022/03/19 06:08:43;;;;;;;56.80;44.73;;;;;;;3.91;100.00;102368.16;5029038;28;20212;-59
2022/03/19 06:11:08;;;;;;;58.27;42.80;;;;;;;4.08;100.00;102365.56;5026221;28;20187;-56
2022/03/19 06:13:34;;;;;;;56.20;42.83;;;;;;;4.16;100.00;102371.09;5027329;28;20179;-58
2022/03/19 06:15:59;;;;;;;56.27;41.57;;;;;;;4.29;100.00;102364.91;5023272;28;20183;-60
2022/03/19 06:18:24;;;;;;;53.17;41.77;;;;;;;4.40;100.00;102367.19;5022845;28;20282;-58
2022/03/19 06:20:50;;;;;;;53.47;41.67;;;;;;;4.51;100.00;102367.72;5026112;28;20416;-59
2022/03/19 06:23:15;;;;;;;50.37;40.27;;;;;;;4.58;100.00;102377.50;5023112;28;20207;-59
2022/03/19 06:25:41;;;;;;;53.37;41.27;;;;;;;4.73;100.00;102361.97;5020577;28;20188;-55
2022/03/19 06:28:06;;;;;;;52.83;42.00;;;;;;;4.86;100.00;102367.69;5022335;28;20211;-58
2022/03/19 06:30:37;;;;;;;51.87;41.47;;;;;;;4.93;100.00;102372.31;5015259;28;20271;-56
2022/03/19 06:33:03;;;;;;;50.77;40.40;;;;;;;4.94;100.00;102371.53;5021709;28;20329;-56
2022/03/19 06:38:13;;;;;;;51.67;40.07;;;;;;;4.97;100.00;102376.81;5021956;28;20729;-58
2022/03/19 06:40:38;;;;;;;49.67;40.67;;;;;;;5.02;100.00;102382.16;5024446;28;20187;-56
2022/03/19 06:43:04;;;;;;;49.63;40.53;;;;;;;5.15;100.00;102373.31;5023585;28;20559;-55
2022/03/19 06:45:29;;;;;;;48.20;38.93;;;;;;;5.16;100.00;102362.25;5017957;28;20196;-56
2022/03/19 06:47:54;;;;;;;49.33;39.47;;;;;;;5.14;100.00;102377.59;5025916;28;20211;-56
2022/03/19 06:50:20;;;;;;;48.93;39.50;;;;;;;5.15;100.00;102371.66;5020220;28;20192;-57
2022/03/19 06:52:45;;;;;;;50.43;39.27;;;;;;;5.17;100.00;102364.91;5022377;28;20676;-57
2022/03/19 06:55:10;;;;;;;47.73;38.00;;;;;;;5.19;100.00;102368.44;5023081;28;20223;-58
2022/03/19 06:57:36;;;;;;;50.77;41.10;;;;;;;5.19;100.00;102359.84;5018598;28;20188;-55
2022/03/19 07:00:01;;;;;;;49.60;39.30;;;;;;;5.18;100.00;102364.09;5025222;28;20197;-58
2022/03/19 07:02:28;;;;;;;49.87;40.27;;;;;;;5.22;100.00;102366.81;5026803;28;20202;-57
2022/03/19 07:04:54;;;;;;;48.97;40.07;;;;;;;5.15;100.00;102374.22;5026993;28;20198;-57
2022/03/19 07:07:21;;;;;;;55.17;42.87;;;;;;;5.23;100.00;102355.72;5020639;28;20191;-55
2022/03/19 07:09:46;;;;;;;51.37;41.60;;;;;;;5.39;100.00;102354.75;5028235;28;20630;-58
2022/03/19 07:12:13;;;;;;;50.63;40.63;;;;;;;5.57;100.00;102358.16;5025091;28;20219;-58
2022/03/19 07:14:39;;;;;;;50.80;40.23;;;;;;;5.50;100.00;102353.53;5030515;28;20191;-57
2022/03/19 07:17:04;;;;;;;48.33;39.43;;;;;;;5.51;100.00;102351.88;5028733;28;20675;-59
2022/03/19 07:19:30;;;;;;;51.60;41.97;;;;;;;5.50;100.00;102350.97;5024023;28;20270;-56
2022/03/19 07:21:56;;;;;;;49.27;40.83;;;;;;;5.61;100.00;102346.31;5031474;28;20217;-55
2022/03/19 07:24:21;;;;;;;50.63;40.83;;;;;;;5.65;100.00;102340.53;5025492;28;20216;-56
2022/03/19 07:26:46;;;;;;;49.43;39.47;;;;;;;5.72;100.00;102342.53;5026179;28;20570;-56
2022/03/19 07:29:15;;;;;;;46.67;40.03;;;;;;;5.84;100.00;102356.72;5028901;28;20643;-57
2022/03/19 07:31:40;;;;;;;48.17;39.63;;;;;;;5.87;100.00;102356.88;5029580;28;20243;-56
2022/03/19 07:34:06;;;;;;;52.77;41.13;;;;;;;5.93;100.00;102355.44;5028304;28;20628;-56
2022/03/19 07:36:31;;;;;;;50.07;39.90;;;;;;;6.07;99.96;102352.63;5023865;28;20270;-56
2022/03/19 07:38:56;;;;;;;46.53;38.93;;;;;;;6.17;99.23;102353.88;5028979;28;20672;-57
2022/03/19 07:44:06;;;;;;;45.83;39.17;;;;;;;6.37;98.49;102352.16;5027244;28;20597;-56
2022/03/19 07:46:31;;;;;;;45.90;39.47;;;;;;;6.46;97.72;102355.13;5029011;28;20191;-59
2022/03/19 07:48:57;;;;;;;48.10;39.00;;;;;;;6.49;96.25;102362.09;5029822;28;20216;-57
2022/03/19 07:51:22;;;;;;;47.00;39.87;;;;;;;6.58;96.03;102352.16;5029124;28;20183;-57
2022/03/19 07:53:48;;;;;;;45.87;38.93;;;;;;;6.60;96.00;102345.38;5029460;28;20183;-56
2022/03/19 07:56:13;;;;;;;49.63;40.43;;;;;;;6.65;95.99;102351.59;5025334;28;20195;-57
2022/03/19 07:58:40;;;;;;;46.67;39.60;;;;;;;6.65;95.18;102354.19;5023042;28;20216;-59
2022/03/19 08:01:06;;;;;;;45.90;38.03;;;;;;;6.64;94.02;102357.56;5024713;28;20208;-57
2022/03/19 08:03:31;;;;;;;45.63;37.70;;;;;;;6.76;94.69;102346.00;5020170;28;20201;-57
2022/03/19 08:05:56;;;;;;;45.20;37.97;;;;;;;6.78;93.88;102350.41;5026515;28;20623;-57
2022/03/19 08:08:22;;;;;;;42.83;37.30;;;;;;;6.86;92.49;102354.16;5018953;28;20239;-57
2022/03/19 08:10:47;;;;;;;45.77;38.90;;;;;;;6.91;92.38;102344.03;5025997;28;20320;-58
2022/03/19 08:13:13;;;;;;;43.93;37.40;;;;;;;6.92;90.89;102352.66;5021888;28;20188;-57
2022/03/19 08:15:39;;;;;;;42.53;35.47;;;;;;;6.99;91.57;102344.34;5021109;28;20190;-59
2022/03/19 08:18:06;;;;;;;42.17;36.27;;;;;;;7.00;90.30;102344.41;5020176;28;20209;-58
2022/03/19 08:20:32;;;;;;;45.07;37.90;;;;;;;7.07;90.84;102339.50;5020479;28;20206;-57
2022/03/19 08:22:57;;;;;;;43.47;36.23;;;;;;;7.14;89.79;102341.50;5026606;28;20208;-57
2022/03/19 08:25:23;;;;;;;41.83;35.57;;;;;;;7.21;89.25;102343.47;5030676;28;20192;-58
2022/03/19 08:27:50;;;;;;;43.13;36.27;;;;;;;7.27;89.23;102346.28;5020018;28;20569;-57
2022/03/19 08:30:16;;;;;;;41.60;35.83;;;;;;;7.33;88.23;102345.63;5021533;28;20192;-58
2022/03/19 08:32:42;;;;;;;42.73;35.53;;;;;;;7.40;88.80;102339.91;5016089;28;20199;-58
2022/03/19 08:35:07;;;;;;;40.40;34.27;;;;;;;7.40;86.45;102329.59;5022474;28;20221;-60
2022/03/19 08:37:33;;;;;;;40.40;34.50;;;;;;;7.53;88.35;102327.47;5015595;28;20247;-58
2022/03/19 08:40:17;;;;;;;38.17;33.80;;;;;;;7.63;87.36;102322.72;5019330;28;20256;-57
2022/03/19 08:42:51;;;;;;;39.40;34.10;;;;;;;7.66;86.48;102323.63;5026237;28;20218;-58
2022/03/19 08:45:17;;;;;;;40.63;34.00;;;;;;;7.70;86.58;102313.50;5025866;28;20219;-57
2022/03/19 08:47:42;;;;;;;38.77;34.23;;;;;;;7.72;85.75;102324.72;5016573;28;20215;-58
2022/03/19 08:50:08;;;;;;;37.70;32.93;;;;;;;7.77;85.14;102330.06;5021815;28;20926;-60
2022/03/19 08:52:34;;;;;;;41.63;33.53;;;;;;;7.87;86.64;102310.63;5019167;28;20844;-58
2022/03/19 08:55:01;;;;;;;38.57;33.10;;;;;;;7.95;84.12;102332.41;5020979;28;20181;-57
2022/03/19 08:57:27;;;;;;;38.30;31.33;;;;;;;7.96;84.19;102303.22;5019756;28;20271;-56
2022/03/19 08:59:52;;;;;;;38.13;33.17;;;;;;;8.02;84.59;102306.00;5023475;28;20211;-55
2022/03/19 09:02:18;;;;;;;36.07;30.87;;;;;;;8.04;83.34;102314.66;5020165;28;20260;-58
2022/03/19 09:04:43;;;;;;;35.67;31.90;;;;;;;8.20;83.03;102308.34;5025189;28;20219;-58
2022/03/19 09:07:09;;;;;;;37.43;31.57;;;;;;;8.28;83.43;102310.28;5031456;28;20571;-58
2022/03/19 09:09:35;;;;;;;34.83;31.10;;;;;;;8.30;82.52;102335.31;5025871;28;20265;-58
2022/03/19 09:12:01;;;;;;;34.40;30.70;;;;;;;8.39;82.67;102296.91;5022527;28;20191;-57
2022/03/19 09:14:27;;;;;;;34.83;30.77;;;;;;;8.48;81.06;102285.16;5024667;28;20179;-56
2022/03/19 09:16:52;;;;;;;34.57;30.63;;;;;;;8.51;80.94;102287.84;5022301;28;20190;-57
2022/03/19 09:19:18;;;;;;;34.10;30.50;;;;;;;8.45;80.47;102291.06;5022418;28;20590;-57
2022/03/19 09:21:43;;;;;;;35.83;30.30;;;;;;;8.48;81.93;102288.63;5022984;28;20906;-56
2022/03/19 09:24:10;;;;;;;33.23;29.53;;;;;;;8.58;81.50;102288.91;5021473;28;20218;-57
2022/03/19 09:26:35;;;;;;;38.00;30.87;;;;;;;8.63;80.75;102272.72;5023149;28;20192;-58
2022/03/19 09:29:01;;;;;;;34.23;29.60;;;;;;;8.65;80.99;102272.78;5017905;28;20266;-58
2022/03/19 09:31:27;;;;;;;32.80;29.27;;;;;;;8.68;80.88;102273.75;5025168;28;20186;-58
2022/03/19 09:33:53;;;;;;;37.03;30.10;;;;;;;8.72;80.55;102268.69;5019826;28;20191;-56
2022/03/19 09:36:18;;;;;;;35.33;29.93;;;;;;;8.83;80.84;102260.44;5022660;28;20198;-58
2022/03/19 09:38:44;;;;;;;32.27;28.77;;;;;;;8.83;80.46;102249.22;5021443;28;20216;-60
2022/03/19 09:41:10;;;;;;;32.00;28.53;;;;;;;8.89;79.45;102261.44;5019563;28;20572;-60
2022/03/19 09:43:35;;;;;;;32.07;28.30;;;;;;;8.94;80.34;102254.72;5016080;28;20577;-58
2022/03/19 09:46:07;;;;;;;31.87;28.27;;;;;;;8.98;79.88;102246.25;5032641;28;20194;-57
2022/03/19 09:48:33;;;;;;;32.53;29.03;;;;;;;8.96;80.29;102272.00;5029656;28;20249;-60
2022/03/19 09:50:58;;;;;;;33.20;29.67;;;;;;;8.93;79.15;102228.00;5023296;28;20192;-60
2022/03/19 09:53:26;;;;;;;33.43;29.93;;;;;;;9.05;80.45;102236.97;5027139;28;20185;-56
2022/03/19 09:55:56;;;;;;;34.07;30.37;;;;;;;9.11;79.16;102232.84;5020652;28;20295;-56
2022/03/19 09:58:24;;;;;;;33.17;29.57;;;;;;;9.20;79.06;102221.91;5021807;28;20214;-58
2022/03/19 10:00:50;;;;;;;34.73;29.73;;;;;;;9.18;79.83;102239.06;5020679;28;20183;-59
2022/03/19 10:03:16;;;;;;;34.30;29.20;;;;;;;9.25;79.35;102224.59;5019708;28;20586;-57
2022/03/19 10:08:37;;;;;;;35.70;29.53;;;;;;;9.37;78.70;102201.69;5019062;28;20237;-59
2022/03/19 10:11:06;;;;;;;34.23;29.63;;;;;;;9.51;79.72;102199.47;5039261;28;20216;-57
2022/03/19 10:13:32;;;;;;;35.80;29.87;;;;;;;9.49;78.52;102210.59;5017257;28;20263;-57
2022/03/19 10:15:57;;;;;;;34.93;28.77;;;;;;;9.41;77.94;102206.09;5029137;28;20307;-57
2022/03/19 10:18:30;;;;;;;34.80;30.33;;;;;;;9.56;79.68;102205.63;5012872;28;20246;-56
2022/03/19 10:21:00;;;;;;;34.10;30.10;;;;;;;9.64;78.94;102202.38;5019540;28;20195;-57
2022/03/19 10:23:33;;;;;;;33.40;29.37;;;;;;;9.63;78.13;102191.13;5023119;28;20198;-57
2022/03/19 10:25:59;;;;;;;34.80;30.67;;;;;;;9.66;79.36;102180.88;5028015;28;20313;-57
2022/03/19 10:28:33;;;;;;;35.13;30.07;;;;;;;9.75;78.24;102190.59;5029963;28;20870;-56
2022/03/19 10:30:58;;;;;;;35.30;31.53;;;;;;;9.73;76.80;102187.97;5019077;28;20655;-56
2022/03/19 10:33:31;;;;;;;33.50;29.67;;;;;;;9.76;77.73;102180.28;5023646;28;20251;-57
2022/03/19 10:36:08;;;;;;;33.47;29.63;;;;;;;9.83;77.48;102186.47;5018945;28;20214;-57
2022/03/19 10:38:46;;;;;;;33.07;29.57;;;;;;;9.89;77.45;102178.88;5020627;28;20223;-59
2022/03/19 10:41:17;;;;;;;34.20;30.43;;;;;;;9.90;77.77;102185.78;5022398;28;20756;-57
2022/03/19 10:43:47;;;;;;;33.00;28.93;;;;;;;9.90;76.06;102172.00;5020631;28;20208;-58
2022/03/19 10:46:13;;;;;;;33.67;29.97;;;;;;;9.89;75.59;102154.75;5021968;28;20885;-59
2022/03/19 10:48:38;;;;;;;34.17;29.40;;;;;;;10.04;77.12;102157.69;5022530;28;20219;-58
2022/03/19 10:51:08;;;;;;;33.20;28.97;;;;;;;10.16;75.87;102158.81;5021859;28;20191;-56
2022/03/19 10:53:34;;;;;;;35.47;30.97;;;;;;;10.27;76.17;102152.16;5021746;28;20188;-58
2022/03/19 10:56:01;;;;;;;37.60;31.13;;;;;;;10.33;75.71;102141.94;5027935;28;20190;-58
2022/03/19 10:58:27;;;;;;;36.53;31.73;;;;;;;10.35;75.10;102132.50;5021876;28;20299;-57
2022/03/19 11:00:53;;;;;;;37.17;32.43;;;;;;;10.40;74.56;102148.16;5019156;28;20195;-58
2022/03/19 11:03:23;;;;;;;36.67;32.33;;;;;;;10.40;74.71;102149.84;5021118;28;20208;-57
2022/03/19 11:05:55;;;;;;;37.97;31.93;;;;;;;10.43;73.80;102131.81;5020101;28;20183;-57
2022/03/19 11:08:22;;;;;;;35.50;31.77;;;;;;;10.50;73.93;102133.69;5019772;28;20280;-57
2022/03/19 11:10:49;;;;;;;37.60;32.30;;;;;;;10.54;73.76;102121.69;5022089;28;20200;-57
2022/03/19 11:13:20;;;;;;;38.17;31.93;;;;;;;10.54;73.00;102100.97;5025365;28;20207;-58
2022/03/19 11:15:46;;;;;;;35.83;31.43;;;;;;;10.65;73.28;102121.06;5019250;28;20199;-59
2022/03/19 11:18:12;;;;;;;35.57;31.83;;;;;;;10.82;72.83;102110.16;5023176;28;20207;-57
2022/03/19 11:20:38;;;;;;;34.43;30.83;;;;;;;10.95;72.33;102094.03;5016533;28;20187;-58
2022/03/19 11:23:05;;;;;;;34.80;31.10;;;;;;;10.94;71.42;102106.94;5026600;28;20561;-58
2022/03/19 11:25:48;;;;;;;35.33;30.77;;;;;;;10.93;71.89;102085.34;5028067;28;20751;-57